UTA180 UUYH-UUWW
Flight info
| Callsign | UTA180 |
|---|---|
| Flight time | 2h 38m |
| Altitude | 34000 |
| Route | K0870F360 INRO3Q INROR T760 GUDES T756 IDLIR T791 NAZOL T187 ROMTA ROMT3B |
| Aircraft | B738/M-VGDW/C |
Departure
| Time | 2026-04-30 09:09 |
|---|---|
| Airport | Ukhta Airport (UUYH) |
Arrival
| Time | 2026-04-30 11:47 |
|---|---|
| Airport | Vnukovo International Airport (UUWW) |
| Time | Latitude | Longitude | Altitude | Speed | Heading |
|---|---|---|---|---|---|
| 2026-04-30 08:47 | 63.55675 | 53.80254 | 491 ft | 0 kts | 257° |
| 2026-04-30 09:04 | 63.55675 | 53.80253 | 491 ft | 0 kts | 257° |
| 2026-04-30 09:05 | 63.55672 | 53.80226 | 491 ft | 2 kts | 257° |
| 2026-04-30 09:05 | 63.55671 | 53.80185 | 491 ft | 2 kts | 276° |
| 2026-04-30 09:05 | 63.55682 | 53.80150 | 491 ft | 3 kts | 319° |
| 2026-04-30 09:05 | 63.55697 | 53.80117 | 491 ft | 3 kts | 314° |
| 2026-04-30 09:06 | 63.55710 | 53.80077 | 491 ft | 3 kts | 300° |
| 2026-04-30 09:06 | 63.55721 | 53.80032 | 491 ft | 3 kts | 300° |
| 2026-04-30 09:06 | 63.55737 | 53.79968 | 491 ft | 6 kts | 297° |
| 2026-04-30 09:06 | 63.55729 | 53.79870 | 491 ft | 9 kts | 208° |
| 2026-04-30 09:07 | 63.55660 | 53.79821 | 491 ft | 11 kts | 195° |
| 2026-04-30 09:07 | 63.55604 | 53.79714 | 491 ft | 10 kts | 229° |
| 2026-04-30 09:07 | 63.55580 | 53.79769 | 491 ft | 7 kts | 36° |
| 2026-04-30 09:07 | 63.55633 | 53.79803 | 491 ft | 7 kts | 15° |
| 2026-04-30 09:08 | 63.55679 | 53.79831 | 491 ft | 6 kts | 15° |
| 2026-04-30 09:08 | 63.55762 | 53.79882 | 491 ft | 33 kts | 15° |
| 2026-04-30 09:08 | 63.56259 | 53.80188 | 492 ft | 112 kts | 14° |
| 2026-04-30 09:08 | 63.57229 | 53.80797 | 520 ft | 173 kts | 13° |
| 2026-04-30 09:09 | 63.58384 | 53.81525 | 1384 ft | 172 kts | 11° |
| 2026-04-30 09:09 | 63.59507 | 53.82141 | 2257 ft | 171 kts | 7° |
| 2026-04-30 09:09 | 63.60703 | 53.82807 | 2710 ft | 186 kts | 9° |
| 2026-04-30 09:09 | 63.61965 | 53.83605 | 3307 ft | 194 kts | 11° |
| 2026-04-30 09:10 | 63.63304 | 53.84408 | 3763 ft | 206 kts | 6° |
| 2026-04-30 09:10 | 63.64736 | 53.84166 | 4173 ft | 214 kts | 333° |
| 2026-04-30 09:10 | 63.65913 | 53.82111 | 4635 ft | 221 kts | 305° |
| 2026-04-30 09:10 | 63.66650 | 53.79035 | 5130 ft | 233 kts | 289° |
| 2026-04-30 09:11 | 63.66974 | 53.75422 | 5620 ft | 245 kts | 274° |
| 2026-04-30 09:11 | 63.66993 | 53.71527 | 6185 ft | 255 kts | 270° |
| 2026-04-30 09:11 | 63.67033 | 53.67545 | 6929 ft | 257 kts | 272° |
| 2026-04-30 09:11 | 63.67141 | 53.63534 | 7736 ft | 257 kts | 275° |
| 2026-04-30 09:12 | 63.67255 | 53.59546 | 8385 ft | 261 kts | 272° |
| 2026-04-30 09:12 | 63.67346 | 53.55443 | 9056 ft | 264 kts | 272° |
| 2026-04-30 09:12 | 63.67440 | 53.51355 | 9706 ft | 267 kts | 272° |
| 2026-04-30 09:12 | 63.67531 | 53.47127 | 10238 ft | 275 kts | 270° |
| 2026-04-30 09:13 | 63.67294 | 53.42752 | 10519 ft | 289 kts | 253° |
| 2026-04-30 09:13 | 63.66343 | 53.38687 | 10800 ft | 305 kts | 232° |
| 2026-04-30 09:13 | 63.64759 | 53.35402 | 11102 ft | 320 kts | 217° |
| 2026-04-30 09:13 | 63.62849 | 53.32648 | 11538 ft | 330 kts | 212° |
| 2026-04-30 09:14 | 63.60880 | 53.30051 | 12208 ft | 332 kts | 211° |
| 2026-04-30 09:14 | 63.58897 | 53.27463 | 12836 ft | 335 kts | 212° |
| 2026-04-30 09:14 | 63.56877 | 53.24801 | 13482 ft | 337 kts | 212° |
| 2026-04-30 09:14 | 63.54875 | 53.22144 | 14080 ft | 340 kts | 212° |
| 2026-04-30 09:15 | 63.52824 | 53.19402 | 14703 ft | 343 kts | 213° |
| 2026-04-30 09:15 | 63.50805 | 53.16696 | 15287 ft | 346 kts | 213° |
| 2026-04-30 09:15 | 63.48719 | 53.13905 | 15881 ft | 348 kts | 213° |
| 2026-04-30 09:15 | 63.46668 | 53.11166 | 16426 ft | 352 kts | 213° |
| 2026-04-30 09:16 | 63.44563 | 53.08361 | 16956 ft | 355 kts | 213° |
| 2026-04-30 09:16 | 63.42440 | 53.05541 | 17474 ft | 359 kts | 213° |
| 2026-04-30 09:16 | 63.40292 | 53.02688 | 17986 ft | 362 kts | 213° |
| 2026-04-30 09:16 | 63.38127 | 52.99817 | 18503 ft | 365 kts | 213° |
| 2026-04-30 09:17 | 63.35953 | 52.96937 | 19056 ft | 367 kts | 213° |
| 2026-04-30 09:17 | 63.33764 | 52.94040 | 19570 ft | 370 kts | 214° |
| 2026-04-30 09:17 | 63.31538 | 52.91098 | 20074 ft | 373 kts | 214° |
| 2026-04-30 09:17 | 63.29318 | 52.88169 | 20562 ft | 376 kts | 214° |
| 2026-04-30 09:18 | 63.27070 | 52.85208 | 21044 ft | 379 kts | 214° |
| 2026-04-30 09:18 | 63.24794 | 52.82217 | 21507 ft | 382 kts | 214° |
| 2026-04-30 09:18 | 63.22523 | 52.79237 | 21990 ft | 384 kts | 214° |
| 2026-04-30 09:18 | 63.20218 | 52.76219 | 22439 ft | 387 kts | 214° |
| 2026-04-30 09:19 | 63.17901 | 52.73192 | 22898 ft | 390 kts | 214° |
| 2026-04-30 09:19 | 63.15562 | 52.70142 | 23326 ft | 393 kts | 214° |
| 2026-04-30 09:19 | 63.13208 | 52.67094 | 23748 ft | 396 kts | 215° |
| 2026-04-30 09:19 | 63.10871 | 52.63914 | 24087 ft | 399 kts | 218° |
| 2026-04-30 09:20 | 63.08629 | 52.60248 | 24431 ft | 400 kts | 224° |
| 2026-04-30 09:20 | 63.06593 | 52.56112 | 24860 ft | 400 kts | 229° |
| 2026-04-30 09:20 | 63.04676 | 52.51731 | 25206 ft | 402 kts | 231° |
| 2026-04-30 09:20 | 63.02805 | 52.47228 | 25561 ft | 404 kts | 232° |
| 2026-04-30 09:21 | 63.00929 | 52.42610 | 25926 ft | 405 kts | 232° |
| 2026-04-30 09:21 | 62.99049 | 52.37968 | 26255 ft | 408 kts | 232° |
| 2026-04-30 09:21 | 62.97158 | 52.33320 | 26574 ft | 410 kts | 231° |
| 2026-04-30 09:21 | 62.95252 | 52.28667 | 26880 ft | 412 kts | 231° |
| 2026-04-30 09:22 | 62.93307 | 52.23952 | 27191 ft | 414 kts | 230° |
| 2026-04-30 09:22 | 62.91396 | 52.19346 | 27478 ft | 417 kts | 230° |
| 2026-04-30 09:22 | 62.89437 | 52.14654 | 27764 ft | 419 kts | 230° |
| 2026-04-30 09:22 | 62.87443 | 52.09896 | 28080 ft | 420 kts | 230° |
| 2026-04-30 09:23 | 62.85461 | 52.05183 | 28359 ft | 423 kts | 230° |
| 2026-04-30 09:23 | 62.83470 | 52.00458 | 28636 ft | 425 kts | 230° |
| 2026-04-30 09:23 | 62.81485 | 51.95755 | 28921 ft | 426 kts | 229° |
| 2026-04-30 09:23 | 62.79470 | 51.90995 | 29193 ft | 428 kts | 229° |
| 2026-04-30 09:24 | 62.77443 | 51.86211 | 29429 ft | 431 kts | 229° |
| 2026-04-30 09:24 | 62.75438 | 51.81491 | 29680 ft | 433 kts | 229° |
| 2026-04-30 09:24 | 62.73384 | 51.76665 | 29943 ft | 434 kts | 229° |
| 2026-04-30 09:24 | 62.71316 | 51.71818 | 30263 ft | 434 kts | 229° |
| 2026-04-30 09:25 | 62.69285 | 51.67068 | 30572 ft | 433 kts | 229° |
| 2026-04-30 09:25 | 62.67233 | 51.62278 | 30814 ft | 433 kts | 229° |
| 2026-04-30 09:25 | 62.65183 | 51.57503 | 31056 ft | 433 kts | 229° |
| 2026-04-30 09:25 | 62.63140 | 51.52757 | 31280 ft | 435 kts | 229° |
| 2026-04-30 09:26 | 62.61077 | 51.47971 | 31563 ft | 434 kts | 229° |
| 2026-04-30 09:26 | 62.59027 | 51.43228 | 31827 ft | 434 kts | 229° |
| 2026-04-30 09:26 | 62.56982 | 51.38503 | 32085 ft | 434 kts | 228° |
| 2026-04-30 09:26 | 62.54906 | 51.33720 | 32320 ft | 435 kts | 227° |
| 2026-04-30 09:27 | 62.52845 | 51.28979 | 32549 ft | 435 kts | 227° |
| 2026-04-30 09:27 | 62.50776 | 51.24233 | 32768 ft | 436 kts | 227° |
| 2026-04-30 09:27 | 62.48707 | 51.19495 | 32992 ft | 436 kts | 227° |
| 2026-04-30 09:27 | 62.46610 | 51.14704 | 33240 ft | 437 kts | 227° |
| 2026-04-30 09:28 | 62.44544 | 51.09996 | 33487 ft | 438 kts | 227° |
| 2026-04-30 09:28 | 62.42451 | 51.05238 | 33787 ft | 437 kts | 227° |
| 2026-04-30 09:28 | 62.40371 | 51.00517 | 34043 ft | 437 kts | 227° |
| 2026-04-30 09:28 | 62.38273 | 50.95766 | 34293 ft | 438 kts | 227° |
| 2026-04-30 09:29 | 62.36202 | 50.91084 | 34588 ft | 437 kts | 227° |
| 2026-04-30 09:29 | 62.34100 | 50.86347 | 34826 ft | 437 kts | 227° |
| 2026-04-30 09:29 | 62.31998 | 50.81622 | 35063 ft | 437 kts | 227° |
| 2026-04-30 09:29 | 62.29911 | 50.76941 | 35295 ft | 437 kts | 227° |
| 2026-04-30 09:30 | 62.27828 | 50.72281 | 35530 ft | 437 kts | 227° |
| 2026-04-30 09:30 | 62.25713 | 50.67558 | 35734 ft | 438 kts | 227° |
| 2026-04-30 09:30 | 62.23657 | 50.62838 | 35955 ft | 438 kts | 230° |
| 2026-04-30 09:30 | 62.21770 | 50.57698 | 36168 ft | 437 kts | 236° |
| 2026-04-30 09:31 | 62.20170 | 50.52181 | 36318 ft | 439 kts | 242° |
| 2026-04-30 09:31 | 62.18873 | 50.46326 | 36507 ft | 439 kts | 248° |
| 2026-04-30 09:31 | 62.17887 | 50.40179 | 36685 ft | 440 kts | 255° |
| 2026-04-30 09:31 | 62.17229 | 50.33818 | 36873 ft | 440 kts | 260° |
| 2026-04-30 09:32 | 62.16892 | 50.27299 | 37039 ft | 441 kts | 265° |
| 2026-04-30 09:32 | 62.16750 | 50.20786 | 37208 ft | 441 kts | 267° |
| 2026-04-30 09:32 | 62.16644 | 50.14243 | 37352 ft | 442 kts | 267° |
| 2026-04-30 09:32 | 62.16504 | 50.07760 | 37554 ft | 442 kts | 266° |
| 2026-04-30 09:33 | 62.16300 | 50.01235 | 37730 ft | 443 kts | 265° |
| 2026-04-30 09:33 | 62.16030 | 49.94637 | 37915 ft | 443 kts | 264° |
| 2026-04-30 09:33 | 62.15351 | 49.81601 | 37981 ft | 445 kts | 262° |
| 2026-04-30 09:34 | 62.14552 | 49.68554 | 37992 ft | 442 kts | 262° |
| 2026-04-30 09:34 | 62.13700 | 49.55601 | 37993 ft | 442 kts | 262° |
| 2026-04-30 09:35 | 62.12815 | 49.42588 | 37998 ft | 444 kts | 262° |
| 2026-04-30 09:35 | 62.11916 | 49.29620 | 37998 ft | 443 kts | 261° |
| 2026-04-30 09:36 | 62.10775 | 49.16745 | 38002 ft | 443 kts | 253° |
| 2026-04-30 09:36 | 62.08093 | 49.04987 | 38007 ft | 444 kts | 237° |
| 2026-04-30 09:37 | 62.04528 | 48.94295 | 38012 ft | 444 kts | 234° |
| 2026-04-30 09:37 | 62.00834 | 48.83821 | 38018 ft | 444 kts | 233° |
| 2026-04-30 09:38 | 61.97157 | 48.73399 | 38015 ft | 443 kts | 234° |
| 2026-04-30 09:38 | 61.93481 | 48.62917 | 38018 ft | 443 kts | 234° |
| 2026-04-30 09:39 | 61.89831 | 48.52494 | 38018 ft | 444 kts | 234° |
| 2026-04-30 09:39 | 61.86153 | 48.42010 | 38020 ft | 445 kts | 234° |
| 2026-04-30 09:40 | 61.82449 | 48.31487 | 38021 ft | 445 kts | 233° |
| 2026-04-30 09:40 | 61.78772 | 48.21081 | 38020 ft | 446 kts | 233° |
| 2026-04-30 09:41 | 61.75046 | 48.10590 | 38016 ft | 445 kts | 233° |
| 2026-04-30 09:41 | 61.71350 | 48.00233 | 38006 ft | 445 kts | 233° |
| 2026-04-30 09:42 | 61.67625 | 47.89836 | 38009 ft | 445 kts | 233° |
| 2026-04-30 09:42 | 61.63923 | 47.79551 | 38021 ft | 445 kts | 233° |
| 2026-04-30 09:43 | 61.60197 | 47.69247 | 38025 ft | 446 kts | 233° |
| 2026-04-30 09:43 | 61.56437 | 47.58896 | 38020 ft | 446 kts | 233° |
| 2026-04-30 09:44 | 61.52708 | 47.48673 | 38031 ft | 446 kts | 233° |
| 2026-04-30 09:44 | 61.48941 | 47.38416 | 38033 ft | 447 kts | 233° |
| 2026-04-30 09:45 | 61.45146 | 47.28149 | 38037 ft | 447 kts | 232° |
| 2026-04-30 09:45 | 61.41354 | 47.17932 | 38044 ft | 447 kts | 232° |
| 2026-04-30 09:46 | 61.37542 | 47.07716 | 38042 ft | 446 kts | 232° |
| 2026-04-30 09:46 | 61.33754 | 46.97609 | 38055 ft | 446 kts | 232° |
| 2026-04-30 09:47 | 61.29943 | 46.87484 | 38058 ft | 447 kts | 232° |
| 2026-04-30 09:47 | 61.26114 | 46.77353 | 38056 ft | 447 kts | 232° |
| 2026-04-30 09:48 | 61.22358 | 46.67127 | 38055 ft | 447 kts | 236° |
| 2026-04-30 09:48 | 61.18965 | 46.56450 | 38051 ft | 447 kts | 238° |
| 2026-04-30 09:49 | 61.15649 | 46.45571 | 38053 ft | 446 kts | 239° |
| 2026-04-30 09:49 | 61.12347 | 46.34828 | 38047 ft | 446 kts | 237° |
| 2026-04-30 09:50 | 61.08968 | 46.23996 | 38050 ft | 446 kts | 237° |
| 2026-04-30 09:50 | 61.05601 | 46.13329 | 38047 ft | 447 kts | 237° |
| 2026-04-30 09:51 | 61.02205 | 46.02655 | 38049 ft | 448 kts | 237° |
| 2026-04-30 09:51 | 60.98789 | 45.91981 | 38045 ft | 447 kts | 237° |
| 2026-04-30 09:52 | 60.95373 | 45.81362 | 38044 ft | 447 kts | 237° |
| 2026-04-30 09:52 | 60.91939 | 45.70738 | 38048 ft | 447 kts | 237° |
| 2026-04-30 09:53 | 60.88514 | 45.60192 | 38055 ft | 447 kts | 237° |
| 2026-04-30 09:53 | 60.85065 | 45.49619 | 38052 ft | 447 kts | 237° |
| 2026-04-30 09:54 | 60.81609 | 45.39073 | 38054 ft | 449 kts | 237° |
| 2026-04-30 09:54 | 60.78126 | 45.28494 | 38058 ft | 450 kts | 236° |
| 2026-04-30 09:55 | 60.74640 | 45.17955 | 38060 ft | 450 kts | 236° |
| 2026-04-30 09:55 | 60.71102 | 45.07412 | 38051 ft | 450 kts | 234° |
| 2026-04-30 09:56 | 60.67288 | 44.97416 | 38060 ft | 451 kts | 231° |
| 2026-04-30 09:56 | 60.63294 | 44.87559 | 38064 ft | 451 kts | 231° |
| 2026-04-30 09:57 | 60.59337 | 44.77811 | 38065 ft | 450 kts | 231° |
| 2026-04-30 09:57 | 60.55379 | 44.67998 | 38070 ft | 450 kts | 232° |
| 2026-04-30 09:58 | 60.51418 | 44.58147 | 38071 ft | 451 kts | 232° |
| 2026-04-30 09:58 | 60.47481 | 44.48367 | 38070 ft | 452 kts | 232° |
| 2026-04-30 09:59 | 60.39532 | 44.28720 | 38072 ft | 452 kts | 231° |
| 2026-04-30 10:00 | 60.33588 | 44.14134 | 38074 ft | 451 kts | 231° |
| 2026-04-30 10:01 | 60.27587 | 43.99503 | 38077 ft | 452 kts | 231° |
| 2026-04-30 10:02 | 60.21607 | 43.85007 | 38079 ft | 452 kts | 231° |
| 2026-04-30 10:02 | 60.17596 | 43.75337 | 38079 ft | 452 kts | 231° |
| 2026-04-30 10:03 | 60.13593 | 43.65725 | 38081 ft | 452 kts | 231° |
| 2026-04-30 10:03 | 60.09548 | 43.56052 | 38082 ft | 453 kts | 231° |
| 2026-04-30 10:04 | 60.05523 | 43.46468 | 38083 ft | 453 kts | 231° |
| 2026-04-30 10:04 | 60.01467 | 43.36853 | 38087 ft | 453 kts | 231° |
| 2026-04-30 10:05 | 59.97411 | 43.27275 | 38088 ft | 454 kts | 230° |
| 2026-04-30 10:05 | 59.93329 | 43.17674 | 38082 ft | 454 kts | 230° |
| 2026-04-30 10:06 | 59.89269 | 43.08169 | 38086 ft | 454 kts | 230° |
| 2026-04-30 10:06 | 59.85182 | 42.98644 | 38083 ft | 454 kts | 231° |
| 2026-04-30 10:07 | 59.81081 | 42.89125 | 38088 ft | 454 kts | 230° |
| 2026-04-30 10:07 | 59.76987 | 42.79659 | 38089 ft | 454 kts | 231° |
| 2026-04-30 10:08 | 59.72874 | 42.70190 | 38094 ft | 455 kts | 230° |
| 2026-04-30 10:08 | 59.68749 | 42.60731 | 38094 ft | 455 kts | 230° |
| 2026-04-30 10:09 | 59.64624 | 42.51313 | 38098 ft | 456 kts | 230° |
| 2026-04-30 10:09 | 59.60477 | 42.41882 | 38099 ft | 456 kts | 230° |
| 2026-04-30 10:10 | 59.56333 | 42.32494 | 38103 ft | 456 kts | 230° |
| 2026-04-30 10:10 | 59.52168 | 42.23100 | 38105 ft | 457 kts | 230° |
| 2026-04-30 10:11 | 59.47997 | 42.13730 | 38109 ft | 457 kts | 230° |
| 2026-04-30 10:11 | 59.43823 | 42.04390 | 38113 ft | 458 kts | 230° |
| 2026-04-30 10:12 | 59.39623 | 41.95030 | 38113 ft | 458 kts | 230° |
| 2026-04-30 10:12 | 59.35418 | 41.85699 | 38115 ft | 459 kts | 230° |
| 2026-04-30 10:13 | 59.31231 | 41.76445 | 38115 ft | 459 kts | 230° |
| 2026-04-30 10:13 | 59.27014 | 41.67160 | 38119 ft | 459 kts | 230° |
| 2026-04-30 10:14 | 59.22762 | 41.57836 | 38116 ft | 459 kts | 230° |
| 2026-04-30 10:14 | 59.16419 | 41.44001 | 38122 ft | 459 kts | 230° |
| 2026-04-30 10:15 | 59.12157 | 41.34753 | 38126 ft | 459 kts | 229° |
| 2026-04-30 10:15 | 59.07926 | 41.25605 | 38132 ft | 458 kts | 229° |
| 2026-04-30 10:16 | 59.03663 | 41.16427 | 38130 ft | 460 kts | 229° |
| 2026-04-30 10:17 | 58.97242 | 41.02674 | 38137 ft | 461 kts | 229° |
| 2026-04-30 10:17 | 58.90793 | 40.88944 | 38137 ft | 462 kts | 229° |
| 2026-04-30 10:18 | 58.86482 | 40.79808 | 38137 ft | 461 kts | 229° |
| 2026-04-30 10:19 | 58.80000 | 40.66144 | 38135 ft | 462 kts | 229° |
| 2026-04-30 10:19 | 58.75647 | 40.57013 | 38134 ft | 463 kts | 229° |
| 2026-04-30 10:20 | 58.71336 | 40.48010 | 38134 ft | 462 kts | 229° |
| 2026-04-30 10:20 | 58.64791 | 40.34405 | 38135 ft | 462 kts | 228° |
| 2026-04-30 10:21 | 58.60432 | 40.25386 | 38135 ft | 463 kts | 228° |
| 2026-04-30 10:21 | 58.56070 | 40.16399 | 38126 ft | 463 kts | 228° |
| 2026-04-30 10:22 | 58.51716 | 40.07464 | 38124 ft | 464 kts | 228° |
| 2026-04-30 10:22 | 58.47315 | 39.98463 | 38135 ft | 464 kts | 228° |
| 2026-04-30 10:23 | 58.42920 | 39.89513 | 38140 ft | 465 kts | 228° |
| 2026-04-30 10:23 | 58.38486 | 39.80518 | 38144 ft | 466 kts | 228° |
| 2026-04-30 10:24 | 58.34081 | 39.71620 | 38145 ft | 464 kts | 227° |
| 2026-04-30 10:24 | 58.29436 | 39.63047 | 38150 ft | 466 kts | 223° |
| 2026-04-30 10:25 | 58.24596 | 39.55001 | 38156 ft | 466 kts | 222° |
| 2026-04-30 10:25 | 58.19697 | 39.46970 | 38164 ft | 467 kts | 222° |
| 2026-04-30 10:26 | 58.14838 | 39.38939 | 38167 ft | 467 kts | 223° |
| 2026-04-30 10:26 | 58.09987 | 39.30876 | 38167 ft | 467 kts | 222° |
| 2026-04-30 10:27 | 58.05121 | 39.22777 | 38170 ft | 467 kts | 222° |
| 2026-04-30 10:27 | 58.00258 | 39.14699 | 38172 ft | 467 kts | 222° |
| 2026-04-30 10:28 | 57.95370 | 39.06608 | 38170 ft | 467 kts | 222° |
| 2026-04-30 10:28 | 57.90512 | 38.98595 | 38166 ft | 468 kts | 222° |
| 2026-04-30 10:29 | 57.85621 | 38.90557 | 38170 ft | 468 kts | 222° |
| 2026-04-30 10:29 | 57.80741 | 38.82570 | 38168 ft | 467 kts | 222° |
| 2026-04-30 10:30 | 57.75850 | 38.74592 | 38171 ft | 467 kts | 222° |
| 2026-04-30 10:30 | 57.70974 | 38.66671 | 38171 ft | 467 kts | 222° |
| 2026-04-30 10:31 | 57.66087 | 38.58759 | 38169 ft | 468 kts | 222° |
| 2026-04-30 10:31 | 57.61190 | 38.50861 | 38166 ft | 468 kts | 222° |
| 2026-04-30 10:32 | 57.56258 | 38.42938 | 38171 ft | 467 kts | 222° |
| 2026-04-30 10:32 | 57.51373 | 38.35117 | 38172 ft | 467 kts | 222° |
| 2026-04-30 10:33 | 57.46445 | 38.27255 | 38174 ft | 467 kts | 221° |
| 2026-04-30 10:33 | 57.41534 | 38.19448 | 38173 ft | 468 kts | 221° |
| 2026-04-30 10:34 | 57.36586 | 38.11610 | 38173 ft | 468 kts | 221° |
| 2026-04-30 10:34 | 57.31669 | 38.03852 | 38170 ft | 463 kts | 221° |
| 2026-04-30 10:35 | 57.29258 | 38.00061 | 38170 ft | 448 kts | 221° |
| 2026-04-30 10:35 | 57.26924 | 37.96399 | 38172 ft | 433 kts | 221° |
| 2026-04-30 10:35 | 57.24655 | 37.92843 | 38173 ft | 419 kts | 221° |
| 2026-04-30 10:35 | 57.22478 | 37.89436 | 38179 ft | 411 kts | 221° |
| 2026-04-30 10:36 | 57.18118 | 37.82621 | 38181 ft | 417 kts | 221° |
| 2026-04-30 10:36 | 57.13665 | 37.75685 | 38185 ft | 423 kts | 221° |
| 2026-04-30 10:37 | 57.09262 | 37.68585 | 38184 ft | 420 kts | 229° |
| 2026-04-30 10:37 | 57.07565 | 37.64254 | 38184 ft | 417 kts | 245° |
| 2026-04-30 10:37 | 57.06561 | 37.59321 | 38184 ft | 415 kts | 259° |
| 2026-04-30 10:38 | 57.06179 | 37.48875 | 38183 ft | 411 kts | 279° |
| 2026-04-30 10:38 | 57.06824 | 37.43878 | 38188 ft | 404 kts | 295° |
| 2026-04-30 10:38 | 57.08152 | 37.39333 | 38190 ft | 400 kts | 308° |
| 2026-04-30 10:39 | 57.11932 | 37.31971 | 38190 ft | 395 kts | 327° |
| 2026-04-30 10:39 | 57.14311 | 37.29621 | 38197 ft | 391 kts | 341° |
| 2026-04-30 10:39 | 57.16926 | 37.28363 | 38198 ft | 390 kts | 352° |
| 2026-04-30 10:40 | 57.22284 | 37.28259 | 38194 ft | 387 kts | 13° |
| 2026-04-30 10:40 | 57.24834 | 37.29881 | 38191 ft | 387 kts | 26° |
| 2026-04-30 10:40 | 57.27120 | 37.32407 | 38184 ft | 388 kts | 34° |
| 2026-04-30 10:41 | 57.31331 | 37.38633 | 38179 ft | 388 kts | 39° |
| 2026-04-30 10:41 | 57.35369 | 37.45118 | 38179 ft | 388 kts | 40° |
| 2026-04-30 10:42 | 57.39420 | 37.51698 | 38172 ft | 389 kts | 40° |
| 2026-04-30 10:42 | 57.43496 | 37.58314 | 38175 ft | 389 kts | 40° |
| 2026-04-30 10:43 | 57.47443 | 37.65123 | 38176 ft | 390 kts | 49° |
| 2026-04-30 10:43 | 57.48945 | 37.69223 | 38171 ft | 392 kts | 62° |
| 2026-04-30 10:43 | 57.49918 | 37.73982 | 38172 ft | 395 kts | 74° |
| 2026-04-30 10:44 | 57.50365 | 37.84160 | 38171 ft | 401 kts | 95° |
| 2026-04-30 10:44 | 57.49697 | 37.89177 | 38171 ft | 405 kts | 110° |
| 2026-04-30 10:44 | 57.48373 | 37.93756 | 38172 ft | 408 kts | 123° |
| 2026-04-30 10:45 | 57.44445 | 38.01317 | 38170 ft | 413 kts | 139° |
| 2026-04-30 10:45 | 57.42046 | 38.04213 | 38167 ft | 415 kts | 155° |
| 2026-04-30 10:45 | 57.39253 | 38.05608 | 38174 ft | 418 kts | 173° |
| 2026-04-30 10:46 | 57.36371 | 38.05561 | 38175 ft | 420 kts | 187° |
| 2026-04-30 10:46 | 57.33501 | 38.04527 | 38174 ft | 421 kts | 194° |
| 2026-04-30 10:46 | 57.30730 | 38.02893 | 38166 ft | 419 kts | 205° |
| 2026-04-30 10:46 | 57.28281 | 38.00042 | 38177 ft | 416 kts | 220° |
| 2026-04-30 10:47 | 57.23986 | 37.92958 | 38174 ft | 420 kts | 224° |
| 2026-04-30 10:47 | 57.19671 | 37.85669 | 38178 ft | 420 kts | 223° |
| 2026-04-30 10:48 | 57.15355 | 37.78589 | 38180 ft | 419 kts | 222° |
| 2026-04-30 10:48 | 57.10971 | 37.71544 | 38179 ft | 419 kts | 223° |
| 2026-04-30 10:49 | 57.07357 | 37.63349 | 38179 ft | 414 kts | 247° |
| 2026-04-30 10:49 | 57.06472 | 37.58384 | 38180 ft | 411 kts | 262° |
| 2026-04-30 10:49 | 57.06181 | 37.53217 | 38184 ft | 409 kts | 271° |
| 2026-04-30 10:50 | 57.06335 | 37.47999 | 38178 ft | 407 kts | 283° |
| 2026-04-30 10:50 | 57.07135 | 37.43099 | 38181 ft | 402 kts | 298° |
| 2026-04-30 10:50 | 57.08573 | 37.38733 | 38183 ft | 398 kts | 311° |
| 2026-04-30 10:50 | 57.10384 | 37.34935 | 38183 ft | 396 kts | 317° |
| 2026-04-30 10:51 | 57.12465 | 37.31800 | 38176 ft | 392 kts | 330° |
| 2026-04-30 10:51 | 57.14943 | 37.29710 | 38182 ft | 389 kts | 345° |
| 2026-04-30 10:51 | 57.20252 | 37.28429 | 38179 ft | 387 kts | 2° |
| 2026-04-30 10:52 | 57.22899 | 37.29153 | 38180 ft | 386 kts | 17° |
| 2026-04-30 10:52 | 57.25355 | 37.31070 | 38184 ft | 386 kts | 29° |
| 2026-04-30 10:52 | 57.29666 | 37.36888 | 38181 ft | 388 kts | 38° |
| 2026-04-30 10:53 | 57.33737 | 37.43338 | 38179 ft | 386 kts | 40° |
| 2026-04-30 10:53 | 57.37769 | 37.49870 | 38179 ft | 387 kts | 40° |
| 2026-04-30 10:54 | 57.41785 | 37.56382 | 38180 ft | 387 kts | 40° |
| 2026-04-30 10:54 | 57.45808 | 37.62925 | 38180 ft | 386 kts | 41° |
| 2026-04-30 10:55 | 57.47646 | 37.66618 | 38179 ft | 388 kts | 52° |
| 2026-04-30 10:55 | 57.48989 | 37.70899 | 38179 ft | 391 kts | 66° |
| 2026-04-30 10:55 | 57.49771 | 37.75714 | 38181 ft | 394 kts | 78° |
| 2026-04-30 10:55 | 57.50074 | 37.80812 | 38182 ft | 397 kts | 86° |
| 2026-04-30 10:56 | 57.49879 | 37.85862 | 38175 ft | 400 kts | 100° |
| 2026-04-30 10:56 | 57.48974 | 37.90766 | 38180 ft | 405 kts | 115° |
| 2026-04-30 10:56 | 57.47445 | 37.95127 | 38180 ft | 409 kts | 128° |
| 2026-04-30 10:56 | 57.45503 | 37.98992 | 38181 ft | 411 kts | 134° |
| 2026-04-30 10:57 | 57.40794 | 38.04778 | 38179 ft | 415 kts | 163° |
| 2026-04-30 10:57 | 57.37962 | 38.05537 | 38183 ft | 418 kts | 179° |
| 2026-04-30 10:57 | 57.35040 | 38.05038 | 38184 ft | 420 kts | 189° |
| 2026-04-30 10:58 | 57.29575 | 38.01808 | 38175 ft | 418 kts | 213° |
| 2026-04-30 10:58 | 57.25129 | 37.94922 | 38181 ft | 417 kts | 223° |
| 2026-04-30 10:59 | 57.20895 | 37.87723 | 38180 ft | 416 kts | 223° |
| 2026-04-30 10:59 | 57.16601 | 37.80618 | 38181 ft | 417 kts | 223° |
| 2026-04-30 11:00 | 57.12269 | 37.73625 | 38180 ft | 418 kts | 222° |
| 2026-04-30 11:00 | 57.08222 | 37.66080 | 38177 ft | 416 kts | 238° |
| 2026-04-30 11:01 | 57.06919 | 37.61360 | 38181 ft | 412 kts | 253° |
| 2026-04-30 11:01 | 57.06309 | 37.56264 | 38183 ft | 410 kts | 266° |
| 2026-04-30 11:01 | 57.06594 | 37.45997 | 38177 ft | 404 kts | 289° |
| 2026-04-30 11:02 | 57.07682 | 37.41301 | 38182 ft | 398 kts | 304° |
| 2026-04-30 11:02 | 57.09291 | 37.37237 | 38184 ft | 395 kts | 314° |
| 2026-04-30 11:02 | 57.13464 | 37.30914 | 38179 ft | 388 kts | 337° |
| 2026-04-30 11:03 | 57.15993 | 37.29343 | 38183 ft | 386 kts | 349° |
| 2026-04-30 11:03 | 57.18630 | 37.28661 | 38184 ft | 386 kts | 357° |
| 2026-04-30 11:03 | 57.21297 | 37.28706 | 38177 ft | 385 kts | 8° |
| 2026-04-30 11:04 | 57.26221 | 37.32238 | 38182 ft | 384 kts | 33° |
| 2026-04-30 11:04 | 57.30423 | 37.38276 | 38180 ft | 386 kts | 39° |
| 2026-04-30 11:05 | 57.34446 | 37.44707 | 38178 ft | 384 kts | 40° |
| 2026-04-30 11:05 | 57.38470 | 37.51233 | 38179 ft | 386 kts | 40° |
| 2026-04-30 11:06 | 57.42496 | 37.57759 | 38180 ft | 386 kts | 39° |
| 2026-04-30 11:06 | 57.46464 | 37.64373 | 38180 ft | 385 kts | 45° |
| 2026-04-30 11:06 | 57.48111 | 37.68286 | 38177 ft | 387 kts | 58° |
| 2026-04-30 11:07 | 57.49229 | 37.72830 | 38178 ft | 391 kts | 71° |
| 2026-04-30 11:07 | 57.50211 | 37.82819 | 38137 ft | 401 kts | 84° |
| 2026-04-30 11:07 | 57.50048 | 37.88006 | 37511 ft | 413 kts | 100° |
| 2026-04-30 11:08 | 57.49147 | 37.93129 | 36799 ft | 425 kts | 110° |
| 2026-04-30 11:08 | 57.47870 | 37.98151 | 35952 ft | 438 kts | 116° |
| 2026-04-30 11:08 | 57.46186 | 38.02846 | 35040 ft | 454 kts | 126° |
| 2026-04-30 11:08 | 57.43900 | 38.06944 | 34330 ft | 462 kts | 142° |
| 2026-04-30 11:09 | 57.41083 | 38.09630 | 33963 ft | 460 kts | 161° |
| 2026-04-30 11:09 | 57.37937 | 38.10405 | 33502 ft | 459 kts | 182° |
| 2026-04-30 11:09 | 57.34839 | 38.09127 | 33084 ft | 457 kts | 202° |
| 2026-04-30 11:09 | 57.32150 | 38.06232 | 32629 ft | 454 kts | 219° |
| 2026-04-30 11:10 | 57.29841 | 38.02245 | 32213 ft | 449 kts | 229° |
| 2026-04-30 11:10 | 57.27685 | 37.98150 | 31832 ft | 447 kts | 226° |
| 2026-04-30 11:10 | 57.25407 | 37.94212 | 31434 ft | 446 kts | 224° |
| 2026-04-30 11:10 | 57.23114 | 37.90483 | 31061 ft | 444 kts | 223° |
| 2026-04-30 11:11 | 57.20770 | 37.86778 | 30683 ft | 442 kts | 222° |
| 2026-04-30 11:11 | 57.18459 | 37.83165 | 30305 ft | 438 kts | 222° |
| 2026-04-30 11:11 | 57.16156 | 37.79572 | 29926 ft | 434 kts | 222° |
| 2026-04-30 11:11 | 57.13864 | 37.75992 | 29564 ft | 429 kts | 222° |
| 2026-04-30 11:12 | 57.11525 | 37.72672 | 29128 ft | 429 kts | 215° |
| 2026-04-30 11:12 | 57.08955 | 37.69922 | 28740 ft | 425 kts | 208° |
| 2026-04-30 11:12 | 57.06311 | 37.67639 | 28314 ft | 422 kts | 204° |
| 2026-04-30 11:12 | 57.03632 | 37.65579 | 27884 ft | 418 kts | 203° |
| 2026-04-30 11:13 | 57.00947 | 37.63620 | 27459 ft | 415 kts | 202° |
| 2026-04-30 11:13 | 56.98287 | 37.61714 | 27018 ft | 411 kts | 202° |
| 2026-04-30 11:13 | 56.95650 | 37.59824 | 26580 ft | 408 kts | 202° |
| 2026-04-30 11:13 | 56.93032 | 37.57938 | 26145 ft | 405 kts | 202° |
| 2026-04-30 11:14 | 56.90403 | 37.56032 | 25745 ft | 401 kts | 203° |
| 2026-04-30 11:14 | 56.87824 | 37.54153 | 25287 ft | 397 kts | 203° |
| 2026-04-30 11:14 | 56.85316 | 37.52320 | 25187 ft | 390 kts | 203° |
| 2026-04-30 11:14 | 56.82739 | 37.50433 | 25178 ft | 397 kts | 203° |
| 2026-04-30 11:15 | 56.80177 | 37.48556 | 24965 ft | 399 kts | 203° |
| 2026-04-30 11:15 | 56.77619 | 37.46683 | 24397 ft | 399 kts | 204° |
| 2026-04-30 11:15 | 56.75042 | 37.44798 | 23819 ft | 399 kts | 204° |
| 2026-04-30 11:15 | 56.72501 | 37.42943 | 23282 ft | 396 kts | 204° |
| 2026-04-30 11:16 | 56.69969 | 37.41096 | 22758 ft | 394 kts | 204° |
| 2026-04-30 11:16 | 56.67433 | 37.39250 | 22276 ft | 389 kts | 204° |
| 2026-04-30 11:16 | 56.64973 | 37.37443 | 22187 ft | 375 kts | 204° |
| 2026-04-30 11:16 | 56.62586 | 37.35650 | 22188 ft | 368 kts | 205° |
| 2026-04-30 11:17 | 56.60186 | 37.33823 | 22189 ft | 375 kts | 204° |
| 2026-04-30 11:17 | 56.57819 | 37.32018 | 22187 ft | 372 kts | 204° |
| 2026-04-30 11:17 | 56.55431 | 37.30203 | 22183 ft | 372 kts | 204° |
| 2026-04-30 11:17 | 56.53050 | 37.28403 | 22174 ft | 374 kts | 204° |
| 2026-04-30 11:18 | 56.50630 | 37.26651 | 21834 ft | 373 kts | 202° |
| 2026-04-30 11:18 | 56.45900 | 37.23392 | 21048 ft | 364 kts | 202° |
| 2026-04-30 11:18 | 56.43533 | 37.21780 | 20619 ft | 360 kts | 202° |
| 2026-04-30 11:19 | 56.41227 | 37.20175 | 20228 ft | 355 kts | 203° |
| 2026-04-30 11:19 | 56.38963 | 37.18555 | 20179 ft | 350 kts | 203° |
| 2026-04-30 11:19 | 56.36673 | 37.16895 | 20177 ft | 356 kts | 203° |
| 2026-04-30 11:19 | 56.34378 | 37.15231 | 20176 ft | 356 kts | 203° |
| 2026-04-30 11:20 | 56.32106 | 37.13586 | 20176 ft | 356 kts | 203° |
| 2026-04-30 11:20 | 56.29819 | 37.11940 | 20177 ft | 357 kts | 203° |
| 2026-04-30 11:20 | 56.27465 | 37.10442 | 20175 ft | 357 kts | 199° |
| 2026-04-30 11:20 | 56.25095 | 37.09165 | 20177 ft | 358 kts | 197° |
| 2026-04-30 11:21 | 56.22694 | 37.07962 | 20177 ft | 358 kts | 197° |
| 2026-04-30 11:21 | 56.20316 | 37.06788 | 20176 ft | 357 kts | 197° |
| 2026-04-30 11:21 | 56.17908 | 37.05586 | 20180 ft | 357 kts | 197° |
| 2026-04-30 11:21 | 56.15543 | 37.04391 | 20176 ft | 357 kts | 197° |
| 2026-04-30 11:22 | 56.13143 | 37.03164 | 20179 ft | 356 kts | 197° |
| 2026-04-30 11:22 | 56.10785 | 37.01951 | 20181 ft | 356 kts | 197° |
| 2026-04-30 11:22 | 56.08413 | 37.00727 | 20091 ft | 353 kts | 197° |
| 2026-04-30 11:22 | 56.06079 | 36.99522 | 19649 ft | 351 kts | 197° |
| 2026-04-30 11:23 | 56.03720 | 36.98303 | 19149 ft | 350 kts | 198° |
| 2026-04-30 11:23 | 56.01402 | 36.97106 | 18669 ft | 348 kts | 197° |
| 2026-04-30 11:23 | 55.96810 | 36.94743 | 17746 ft | 342 kts | 197° |
| 2026-04-30 11:24 | 55.94517 | 36.93752 | 17310 ft | 340 kts | 192° |
| 2026-04-30 11:24 | 55.92181 | 36.93322 | 17189 ft | 334 kts | 182° |
| 2026-04-30 11:24 | 55.89859 | 36.93405 | 17183 ft | 340 kts | 177° |
| 2026-04-30 11:25 | 55.85115 | 36.94110 | 17176 ft | 341 kts | 175° |
| 2026-04-30 11:25 | 55.82750 | 36.94500 | 16971 ft | 342 kts | 175° |
| 2026-04-30 11:25 | 55.78073 | 36.95203 | 16338 ft | 332 kts | 176° |
| 2026-04-30 11:26 | 55.73552 | 36.95830 | 15682 ft | 320 kts | 175° |
| 2026-04-30 11:26 | 55.71384 | 36.96271 | 15450 ft | 313 kts | 172° |
| 2026-04-30 11:26 | 55.69238 | 36.96875 | 14959 ft | 314 kts | 171° |
| 2026-04-30 11:27 | 55.67110 | 36.97530 | 14550 ft | 312 kts | 170° |
| 2026-04-30 11:27 | 55.64976 | 36.98178 | 14156 ft | 310 kts | 171° |
| 2026-04-30 11:27 | 55.62860 | 36.98798 | 13774 ft | 308 kts | 171° |
| 2026-04-30 11:27 | 55.60755 | 36.99396 | 13383 ft | 306 kts | 171° |
| 2026-04-30 11:28 | 55.56610 | 36.99880 | 12894 ft | 299 kts | 180° |
| 2026-04-30 11:28 | 55.54491 | 36.99847 | 12509 ft | 305 kts | 181° |
| 2026-04-30 11:28 | 55.52398 | 36.99795 | 12119 ft | 303 kts | 181° |
| 2026-04-30 11:29 | 55.50296 | 36.99759 | 11728 ft | 301 kts | 181° |
| 2026-04-30 11:29 | 55.48219 | 36.99741 | 11347 ft | 298 kts | 180° |
| 2026-04-30 11:29 | 55.44118 | 36.99735 | 10582 ft | 294 kts | 180° |
| 2026-04-30 11:30 | 55.40116 | 36.99647 | 10128 ft | 279 kts | 184° |
| 2026-04-30 11:30 | 55.38217 | 36.99367 | 10032 ft | 267 kts | 187° |
| 2026-04-30 11:30 | 55.36361 | 36.98996 | 9712 ft | 276 kts | 187° |
| 2026-04-30 11:31 | 55.34448 | 36.98598 | 9339 ft | 276 kts | 187° |
| 2026-04-30 11:31 | 55.32559 | 36.98217 | 8998 ft | 275 kts | 187° |
| 2026-04-30 11:31 | 55.30669 | 36.97848 | 8663 ft | 273 kts | 187° |
| 2026-04-30 11:31 | 55.28788 | 36.97487 | 8327 ft | 271 kts | 187° |
| 2026-04-30 11:32 | 55.26936 | 36.97264 | 8178 ft | 264 kts | 179° |
| 2026-04-30 11:32 | 55.25155 | 36.97721 | 8181 ft | 260 kts | 165° |
| 2026-04-30 11:32 | 55.23409 | 36.98669 | 8179 ft | 261 kts | 161° |
| 2026-04-30 11:33 | 55.19981 | 37.00641 | 8175 ft | 260 kts | 163° |
| 2026-04-30 11:33 | 55.18265 | 37.01553 | 8176 ft | 260 kts | 163° |
| 2026-04-30 11:33 | 55.16539 | 37.02470 | 8175 ft | 260 kts | 161° |
| 2026-04-30 11:33 | 55.14906 | 37.03854 | 8176 ft | 261 kts | 142° |
| 2026-04-30 11:34 | 55.13826 | 37.06295 | 8180 ft | 253 kts | 109° |
| 2026-04-30 11:34 | 55.13563 | 37.09251 | 8139 ft | 247 kts | 85° |
| 2026-04-30 11:34 | 55.13864 | 37.12157 | 7967 ft | 240 kts | 68° |
| 2026-04-30 11:34 | 55.14585 | 37.14736 | 7955 ft | 237 kts | 57° |
| 2026-04-30 11:35 | 55.15446 | 37.17201 | 7948 ft | 237 kts | 56° |
| 2026-04-30 11:35 | 55.16296 | 37.19676 | 7944 ft | 238 kts | 57° |
| 2026-04-30 11:35 | 55.17111 | 37.22175 | 7944 ft | 237 kts | 58° |
| 2026-04-30 11:35 | 55.17919 | 37.24692 | 7944 ft | 238 kts | 58° |
| 2026-04-30 11:36 | 55.18720 | 37.27203 | 7942 ft | 238 kts | 58° |
| 2026-04-30 11:36 | 55.19524 | 37.29746 | 7943 ft | 238 kts | 59° |
| 2026-04-30 11:36 | 55.20325 | 37.32266 | 7940 ft | 238 kts | 58° |
| 2026-04-30 11:36 | 55.21227 | 37.34635 | 7851 ft | 231 kts | 46° |
| 2026-04-30 11:37 | 55.22498 | 37.36233 | 7666 ft | 227 kts | 18° |
| 2026-04-30 11:37 | 55.24064 | 37.36644 | 7421 ft | 231 kts | 359° |
| 2026-04-30 11:37 | 55.25665 | 37.36651 | 7156 ft | 227 kts | 359° |
| 2026-04-30 11:37 | 55.27230 | 37.36739 | 6899 ft | 224 kts | 1° |
| 2026-04-30 11:38 | 55.28769 | 37.36848 | 6642 ft | 221 kts | 1° |
| 2026-04-30 11:38 | 55.30307 | 37.36946 | 6393 ft | 226 kts | 1° |
| 2026-04-30 11:38 | 55.31876 | 37.37132 | 6137 ft | 225 kts | 7° |
| 2026-04-30 11:38 | 55.33392 | 37.37735 | 6018 ft | 224 kts | 15° |
| 2026-04-30 11:39 | 55.34895 | 37.38555 | 6018 ft | 225 kts | 15° |
| 2026-04-30 11:39 | 55.36400 | 37.39342 | 6021 ft | 228 kts | 14° |
| 2026-04-30 11:39 | 55.37927 | 37.40072 | 6031 ft | 229 kts | 13° |
| 2026-04-30 11:39 | 55.39467 | 37.40790 | 6029 ft | 227 kts | 13° |
| 2026-04-30 11:40 | 55.40998 | 37.41502 | 6032 ft | 228 kts | 13° |
| 2026-04-30 11:40 | 55.42518 | 37.42222 | 5958 ft | 230 kts | 13° |
| 2026-04-30 11:40 | 55.44072 | 37.42984 | 5647 ft | 227 kts | 13° |
| 2026-04-30 11:40 | 55.45579 | 37.43697 | 5377 ft | 225 kts | 13° |
| 2026-04-30 11:41 | 55.47084 | 37.44405 | 5131 ft | 224 kts | 13° |
| 2026-04-30 11:41 | 55.48557 | 37.45118 | 5021 ft | 218 kts | 14° |
| 2026-04-30 11:41 | 55.50020 | 37.45828 | 4902 ft | 212 kts | 13° |
| 2026-04-30 11:41 | 55.51417 | 37.46511 | 4712 ft | 211 kts | 13° |
| 2026-04-30 11:42 | 55.52837 | 37.47212 | 4378 ft | 213 kts | 13° |
| 2026-04-30 11:42 | 55.54256 | 37.47880 | 4095 ft | 213 kts | 14° |
| 2026-04-30 11:42 | 55.55705 | 37.48599 | 3622 ft | 222 kts | 13° |
| 2026-04-30 11:42 | 55.57183 | 37.49321 | 3414 ft | 216 kts | 13° |
| 2026-04-30 11:43 | 55.58593 | 37.49950 | 3405 ft | 206 kts | 9° |
| 2026-04-30 11:43 | 55.59985 | 37.49952 | 3389 ft | 192 kts | 345° |
| 2026-04-30 11:43 | 55.61185 | 37.49021 | 3157 ft | 188 kts | 332° |
| 2026-04-30 11:43 | 55.62306 | 37.47951 | 2946 ft | 183 kts | 326° |
| 2026-04-30 11:44 | 55.63116 | 37.46323 | 2758 ft | 177 kts | 290° |
| 2026-04-30 11:44 | 55.63128 | 37.44240 | 2596 ft | 169 kts | 256° |
| 2026-04-30 11:44 | 55.62722 | 37.42320 | 2392 ft | 163 kts | 251° |
| 2026-04-30 11:44 | 55.62332 | 37.40535 | 2156 ft | 151 kts | 252° |
| 2026-04-30 11:45 | 55.61951 | 37.38785 | 1934 ft | 152 kts | 251° |
| 2026-04-30 11:45 | 55.61577 | 37.37092 | 1722 ft | 145 kts | 251° |
| 2026-04-30 11:45 | 55.61205 | 37.35415 | 1569 ft | 143 kts | 251° |
| 2026-04-30 11:45 | 55.60839 | 37.33724 | 1427 ft | 151 kts | 251° |
| 2026-04-30 11:46 | 55.60455 | 37.31982 | 1242 ft | 155 kts | 250° |
| 2026-04-30 11:46 | 55.60059 | 37.30221 | 1029 ft | 150 kts | 250° |
| 2026-04-30 11:46 | 55.59685 | 37.28511 | 767 ft | 148 kts | 250° |
| 2026-04-30 11:46 | 55.59323 | 37.26905 | 698 ft | 132 kts | 250° |
| 2026-04-30 11:47 | 55.59066 | 37.25738 | 697 ft | 69 kts | 248° |
| 2026-04-30 11:47 | 55.59003 | 37.25305 | 697 ft | 18 kts | 297° |
| 2026-04-30 11:47 | 55.59037 | 37.25097 | 697 ft | 17 kts | 288° |
| 2026-04-30 11:47 | 55.59131 | 37.25039 | 697 ft | 15 kts | 43° |
| 2026-04-30 11:48 | 55.59176 | 37.25211 | 697 ft | 15 kts | 68° |
| 2026-04-30 11:48 | 55.59215 | 37.25377 | 697 ft | 14 kts | 68° |
| 2026-04-30 11:48 | 55.59251 | 37.25542 | 697 ft | 14 kts | 68° |
| 2026-04-30 11:48 | 55.59287 | 37.25698 | 697 ft | 13 kts | 68° |
| 2026-04-30 11:49 | 55.59320 | 37.25849 | 697 ft | 13 kts | 68° |
| 2026-04-30 11:49 | 55.59354 | 37.25997 | 697 ft | 12 kts | 68° |
| 2026-04-30 11:49 | 55.59385 | 37.26136 | 697 ft | 12 kts | 68° |
| 2026-04-30 11:49 | 55.59423 | 37.26307 | 697 ft | 20 kts | 69° |
| 2026-04-30 11:50 | 55.59476 | 37.26544 | 697 ft | 20 kts | 68° |
| 2026-04-30 11:50 | 55.59532 | 37.26777 | 697 ft | 20 kts | 62° |
| 2026-04-30 11:50 | 55.59615 | 37.26967 | 697 ft | 19 kts | 46° |
| 2026-04-30 11:50 | 55.59707 | 37.27135 | 697 ft | 18 kts | 46° |
| 2026-04-30 11:51 | 55.59796 | 37.27298 | 697 ft | 18 kts | 45° |
| 2026-04-30 11:51 | 55.59882 | 37.27457 | 697 ft | 17 kts | 46° |
| 2026-04-30 11:51 | 55.59957 | 37.27622 | 697 ft | 16 kts | 54° |
| 2026-04-30 11:51 | 55.60039 | 37.27755 | 697 ft | 15 kts | 34° |
| 2026-04-30 11:52 | 55.60106 | 37.27891 | 697 ft | 14 kts | 82° |
| 2026-04-30 11:52 | 55.60077 | 37.28055 | 697 ft | 13 kts | 102° |
| 2026-04-30 11:52 | 55.60077 | 37.28214 | 697 ft | 12 kts | 84° |
| 2026-04-30 11:52 | 55.60094 | 37.28359 | 697 ft | 11 kts | 41° |
| 2026-04-30 11:53 | 55.60171 | 37.28373 | 697 ft | 9 kts | 355° |
| 2026-04-30 11:53 | 55.60187 | 37.28371 | 697 ft | 0 kts | 354° |